sensor_id;sensor_type;location;lat;lon;timestamp;pressure;altitude;pressure_sealevel;temperature;humidity
6565;BME280;3316;44.118;27.258;2022-12-15T00:02:26;100486.13;;;8.57;100.00
6565;BME280;3316;44.118;27.258;2022-12-15T00:05:10;100447.72;;;8.41;100.00
6565;BME280;3316;44.118;27.258;2022-12-15T00:07:54;100440.75;;;8.37;100.00
6565;BME280;3316;44.118;27.258;2022-12-15T00:10:38;100475.66;;;8.50;100.00
6565;BME280;3316;44.118;27.258;2022-12-15T00:13:22;100489.63;;;8.53;100.00
6565;BME280;3316;44.118;27.258;2022-12-15T00:16:06;100487.84;;;8.61;100.00
6565;BME280;3316;44.118;27.258;2022-12-15T00:18:50;100493.97;;;8.62;100.00
6565;BME280;3316;44.118;27.258;2022-12-15T00:21:34;100494.84;;;8.61;100.00
6565;BME280;3316;44.118;27.258;2022-12-15T00:24:18;100444.22;;;8.45;100.00
6565;BME280;3316;44.118;27.258;2022-12-15T00:27:02;100475.59;;;8.65;100.00
6565;BME280;3316;44.118;27.258;2022-12-15T00:29:46;100459.03;;;8.55;100.00
6565;BME280;3316;44.118;27.258;2022-12-15T00:32:30;100431.13;;;8.39;100.00
6565;BME280;3316;44.118;27.258;2022-12-15T00:35:14;100457.28;;;8.57;100.00
6565;BME280;3316;44.118;27.258;2022-12-15T00:37:57;100459.03;;;8.60;100.00
6565;BME280;3316;44.118;27.258;2022-12-15T00:40:49;100461.59;;;8.63;100.00
6565;BME280;3316;44.118;27.258;2022-12-15T00:43:15;100440.69;;;8.54;100.00
6565;BME280;3316;44.118;27.258;2022-12-15T00:45:41;100424.09;;;8.52;100.00
6565;BME280;3316;44.118;27.258;2022-12-15T00:48:25;100439.75;;;8.62;100.00
6565;BME280;3316;44.118;27.258;2022-12-15T00:50:50;100429.28;;;8.59;100.00
6565;BME280;3316;44.118;27.258;2022-12-15T00:53:20;100411.00;;;8.50;100.00
6565;BME280;3316;44.118;27.258;2022-12-15T00:56:04;100443.22;;;8.64;100.00
6565;BME280;3316;44.118;27.258;2022-12-15T00:58:49;100394.34;;;8.53;100.00
6565;BME280;3316;44.118;27.258;2022-12-15T01:01:33;100419.63;;;8.69;100.00
6565;BME280;3316;44.118;27.258;2022-12-15T01:04:16;100421.31;;;8.79;100.00
6565;BME280;3316;44.118;27.258;2022-12-15T01:07:00;100424.81;;;8.76;100.00
6565;BME280;3316;44.118;27.258;2022-12-15T01:09:44;100418.69;;;8.77;100.00
6565;BME280;3316;44.118;27.258;2022-12-15T01:12:28;100391.69;;;8.62;100.00
6565;BME280;3316;44.118;27.258;2022-12-15T01:15:12;100417.81;;;8.81;100.00
6565;BME280;3316;44.118;27.258;2022-12-15T01:17:56;100401.16;;;8.82;100.00
6565;BME280;3316;44.118;27.258;2022-12-15T01:20:40;100416.88;;;8.84;100.00
6565;BME280;3316;44.118;27.258;2022-12-15T01:23:06;100418.63;;;8.86;100.00
6565;BME280;3316;44.118;27.258;2022-12-15T01:25:31;100409.06;;;8.78;100.00
6565;BME280;3316;44.118;27.258;2022-12-15T01:27:57;100420.38;;;8.84;100.00
6565;BME280;3316;44.118;27.258;2022-12-15T01:30:25;100427.38;;;8.84;100.00
6565;BME280;3316;44.118;27.258;2022-12-15T01:32:51;100416.88;;;8.84;100.00
6565;BME280;3316;44.118;27.258;2022-12-15T01:35:18;100420.38;;;8.84;100.00
6565;BME280;3316;44.118;27.258;2022-12-15T01:37:44;100413.41;;;8.85;100.00
6565;BME280;3316;44.118;27.258;2022-12-15T01:40:13;100415.16;;;8.80;100.00
6565;BME280;3316;44.118;27.258;2022-12-15T01:42:57;100410.88;;;8.68;100.00
6565;BME280;3316;44.118;27.258;2022-12-15T01:47:52;100393.41;;;8.63;100.00
6565;BME280;3316;44.118;27.258;2022-12-15T01:50:19;100404.78;;;8.68;100.00
6565;BME280;3316;44.118;27.258;2022-12-15T01:52:46;100350.75;;;8.38;100.00
6565;BME280;3316;44.118;27.258;2022-12-15T01:55:13;100395.19;;;8.64;100.00
6565;BME280;3316;44.118;27.258;2022-12-15T01:57:41;100396.03;;;8.63;100.00
6565;BME280;3316;44.118;27.258;2022-12-15T02:00:07;100389.97;;;8.58;100.00
6565;BME280;3316;44.118;27.258;2022-12-15T02:02:35;100395.19;;;8.56;100.00
6565;BME280;3316;44.118;27.258;2022-12-15T02:05:03;100405.69;;;8.64;100.00
6565;BME280;3316;44.118;27.258;2022-12-15T02:07:29;100407.31;;;8.74;100.00
6565;BME280;3316;44.118;27.258;2022-12-15T02:09:57;100389.06;;;8.60;100.00
6565;BME280;3316;44.118;27.258;2022-12-15T02:12:49;100399.47;;;8.77;100.00
6565;BME280;3316;44.118;27.258;2022-12-15T02:15:32;100398.63;;;8.70;100.00
6565;BME280;3316;44.118;27.258;2022-12-15T02:18:07;100397.75;;;8.71;100.00
6565;BME280;3316;44.118;27.258;2022-12-15T02:31:48;100368.09;;;8.59;100.00
6565;BME280;3316;44.118;27.258;2022-12-15T02:34:28;100336.75;;;8.41;100.00
6565;BME280;3316;44.118;27.258;2022-12-15T02:37:02;100352.31;;;8.65;100.00
6565;BME280;3316;44.118;27.258;2022-12-15T02:39:28;100358.47;;;8.64;100.00
6565;BME280;3316;44.118;27.258;2022-12-15T02:41:54;100361.13;;;8.58;100.00
6565;BME280;3316;44.118;27.258;2022-12-15T02:44:38;100359.38;;;8.57;100.00
6565;BME280;3316;44.118;27.258;2022-12-15T02:47:31;100357.59;;;8.59;100.00
6565;BME280;3316;44.118;27.258;2022-12-15T02:50:08;100346.31;;;8.52;100.00
6565;BME280;3316;44.118;27.258;2022-12-15T03:00:31;100303.56;;;8.38;100.00
6565;BME280;3316;44.118;27.258;2022-12-15T03:02:58;100309.69;;;8.37;100.00
6565;BME280;3316;44.118;27.258;2022-12-15T03:05:24;100312.28;;;8.39;100.00
6565;BME280;3316;44.118;27.258;2022-12-15T03:07:52;100288.81;;;8.16;100.00
6565;BME280;3316;44.118;27.258;2022-12-15T03:10:19;100322.84;;;8.33;100.00
6565;BME280;3316;44.118;27.258;2022-12-15T03:12:46;100290.63;;;8.11;100.00
6565;BME280;3316;44.118;27.258;2022-12-15T03:15:11;100297.56;;;8.17;100.00
6565;BME280;3316;44.118;27.258;2022-12-15T03:17:37;100300.25;;;8.04;100.00
6565;BME280;3316;44.118;27.258;2022-12-15T03:20:03;100326.34;;;8.21;100.00
6565;BME280;3316;44.118;27.258;2022-12-15T03:22:29;100315.00;;;8.22;100.00
6565;BME280;3316;44.118;27.258;2022-12-15T03:24:56;100291.47;;;8.10;100.00
6565;BME280;3316;44.118;27.258;2022-12-15T03:27:21;100306.25;;;8.28;100.00
6565;BME280;3316;44.118;27.258;2022-12-15T03:29:46;100296.66;;;8.27;100.00
6565;BME280;3316;44.118;27.258;2022-12-15T03:32:12;100279.25;;;8.10;100.00
6565;BME280;3316;44.118;27.258;2022-12-15T03:34:37;100274.84;;;8.16;100.00
6565;BME280;3316;44.118;27.258;2022-12-15T03:37:03;100280.06;;;8.22;100.00
6565;BME280;3316;44.118;27.258;2022-12-15T03:39:28;100288.81;;;8.16;100.00
6565;BME280;3316;44.118;27.258;2022-12-15T03:41:54;100297.56;;;8.13;100.00
6565;BME280;3316;44.118;27.258;2022-12-15T03:44:19;100307.22;;;8.08;100.00
6565;BME280;3316;44.118;27.258;2022-12-15T03:46:45;100303.66;;;8.25;100.00
6565;BME280;3316;44.118;27.258;2022-12-15T03:49:10;100294.09;;;8.15;100.00
6565;BME280;3316;44.118;27.258;2022-12-15T03:51:36;100298.53;;;8.03;100.00
6565;BME280;3316;44.118;27.258;2022-12-15T03:54:01;100297.66;;;7.98;100.00
6565;BME280;3316;44.118;27.258;2022-12-15T03:56:26;100308.97;;;8.08;100.00
6565;BME280;3316;44.118;27.258;2022-12-15T03:58:52;100291.50;;;8.08;100.00
6565;BME280;3316;44.118;27.258;2022-12-15T04:03:47;100288.00;;;8.06;100.00
6565;BME280;3316;44.118;27.258;2022-12-15T04:06:13;100253.25;;;7.76;100.00
6565;BME280;3316;44.118;27.258;2022-12-15T04:08:38;100288.06;;;7.96;100.00
6565;BME280;3316;44.118;27.258;2022-12-15T04:11:04;100246.28;;;7.73;100.00
6565;BME280;3316;44.118;27.258;2022-12-15T04:13:29;100267.19;;;7.85;100.00
6565;BME280;3316;44.118;27.258;2022-12-15T04:15:54;100288.97;;;7.90;100.00
6565;BME280;3316;44.118;27.258;2022-12-15T04:18:21;100281.16;;;7.83;100.00
6565;BME280;3316;44.118;27.258;2022-12-15T04:20:46;100277.75;;;7.66;100.00
6565;BME280;3316;44.118;27.258;2022-12-15T04:23:12;100283.81;;;7.74;100.00
6565;BME280;3316;44.118;27.258;2022-12-15T04:25:37;100290.75;;;7.81;100.00
6565;BME280;3316;44.118;27.258;2022-12-15T04:28:22;100287.25;;;7.80;100.00
6565;BME280;3316;44.118;27.258;2022-12-15T04:31:07;100275.88;;;7.90;100.00
6565;BME280;3316;44.118;27.258;2022-12-15T04:33:54;100273.22;;;7.96;100.00
6565;BME280;3316;44.118;27.258;2022-12-15T04:36:39;100276.66;;;8.04;100.00
6565;BME280;3316;44.118;27.258;2022-12-15T04:39:25;100268.00;;;7.95;100.00
6565;BME280;3316;44.118;27.258;2022-12-15T04:42:09;100247.97;;;7.83;100.00
6565;BME280;3316;44.118;27.258;2022-12-15T04:44:56;100251.44;;;7.88;100.00
6565;BME280;3316;44.118;27.258;2022-12-15T04:47:41;100255.78;;;7.91;100.00
6565;BME280;3316;44.118;27.258;2022-12-15T04:50:25;100261.75;;;8.14;100.00
6565;BME280;3316;44.118;27.258;2022-12-15T04:53:15;100256.53;;;8.13;100.00
6565;BME280;3316;44.118;27.258;2022-12-15T04:56:00;100250.47;;;8.04;100.00
6565;BME280;3316;44.118;27.258;2022-12-15T04:58:44;100264.41;;;8.09;100.00
6565;BME280;3316;44.118;27.258;2022-12-15T05:01:28;100261.81;;;8.06;100.00
6565;BME280;3316;44.118;27.258;2022-12-15T05:04:12;100252.31;;;7.89;100.00
6565;BME280;3316;44.118;27.258;2022-12-15T05:06:56;100268.78;;;8.10;100.00
6565;BME280;3316;44.118;27.258;2022-12-15T05:09:40;100259.16;;;8.11;100.00
6565;BME280;3316;44.118;27.258;2022-12-15T05:12:24;100266.13;;;8.17;100.00
6565;BME280;3316;44.118;27.258;2022-12-15T05:15:08;100269.59;;;8.16;100.00
6565;BME280;3316;44.118;27.258;2022-12-15T05:17:53;100261.84;;;7.99;100.00
6565;BME280;3316;44.118;27.258;2022-12-15T05:20:37;100258.38;;;7.97;100.00
6565;BME280;3316;44.118;27.258;2022-12-15T05:23:21;100264.53;;;7.91;100.00
6565;BME280;3316;44.118;27.258;2022-12-15T05:26:05;100245.41;;;7.73;100.00
6565;BME280;3316;44.118;27.258;2022-12-15T05:28:49;100284.63;;;7.86;100.00
6565;BME280;3316;44.118;27.258;2022-12-15T05:31:33;100285.53;;;7.81;100.00
6565;BME280;3316;44.118;27.258;2022-12-15T05:34:13;100289.88;;;7.83;100.00
6565;BME280;3316;44.118;27.258;2022-12-15T05:36:39;100296.88;;;7.86;100.00
6565;BME280;3316;44.118;27.258;2022-12-15T05:39:05;100283.78;;;7.77;100.00
6565;BME280;3316;44.118;27.258;2022-12-15T05:41:30;100298.59;;;7.85;100.00
6565;BME280;3316;44.118;27.258;2022-12-15T05:43:55;100268.09;;;7.71;100.00
6565;BME280;3316;44.118;27.258;2022-12-15T05:46:21;100270.75;;;7.72;100.00
6565;BME280;3316;44.118;27.258;2022-12-15T05:48:46;100286.41;;;7.81;100.00
6565;BME280;3316;44.118;27.258;2022-12-15T05:51:12;100298.53;;;7.96;100.00
6565;BME280;3316;44.118;27.258;2022-12-15T05:53:39;100296.75;;;8.04;100.00
6565;BME280;3316;44.118;27.258;2022-12-15T05:56:07;100307.16;;;8.18;100.00
6565;BME280;3316;44.118;27.258;2022-12-15T05:58:33;100301.97;;;8.08;100.00
6565;BME280;3316;44.118;27.258;2022-12-15T06:01:04;100317.78;;;7.93;100.00
6565;BME280;3316;44.118;27.258;2022-12-15T06:03:31;100311.69;;;7.85;100.00
6565;BME280;3316;44.118;27.258;2022-12-15T06:05:57;100309.03;;;7.93;100.00
6565;BME280;3316;44.118;27.258;2022-12-15T06:08:22;100317.75;;;7.96;100.00
6565;BME280;3316;44.118;27.258;2022-12-15T06:10:52;100313.44;;;7.89;100.00
6565;BME280;3316;44.118;27.258;2022-12-15T06:13:18;100323.91;;;7.89;100.00
6565;BME280;3316;44.118;27.258;2022-12-15T06:15:56;100327.38;;;7.90;100.00
6565;BME280;3316;44.118;27.258;2022-12-15T06:18:22;100328.25;;;7.90;100.00
6565;BME280;3316;44.118;27.258;2022-12-15T06:20:48;100345.72;;;7.91;100.00
6565;BME280;3316;44.118;27.258;2022-12-15T06:23:13;100343.97;;;7.90;100.00
6565;BME280;3316;44.118;27.258;2022-12-15T06:25:39;100360.56;;;7.92;100.00
6565;BME280;3316;44.118;27.258;2022-12-15T06:28:04;100353.59;;;7.82;100.00
6565;BME280;3316;44.118;27.258;2022-12-15T06:30:29;100324.00;;;7.59;100.00
6565;BME280;3316;44.118;27.258;2022-12-15T06:32:55;100363.19;;;7.86;100.00
6565;BME280;3316;44.118;27.258;2022-12-15T06:35:20;100362.38;;;7.80;100.00
6565;BME280;3316;44.118;27.258;2022-12-15T06:37:46;100369.31;;;7.85;100.00
6565;BME280;3316;44.118;27.258;2022-12-15T06:40:11;100362.38;;;7.74;100.00
6565;BME280;3316;44.118;27.258;2022-12-15T06:42:37;100383.31;;;7.86;100.00
6565;BME280;3316;44.118;27.258;2022-12-15T06:45:02;100397.25;;;7.91;100.00
6565;BME280;3316;44.118;27.258;2022-12-15T06:47:28;100383.25;;;7.90;100.00
6565;BME280;3316;44.118;27.258;2022-12-15T06:49:54;100382.41;;;7.91;100.00
6565;BME280;3316;44.118;27.258;2022-12-15T06:52:20;100395.47;;;7.96;100.00
6565;BME280;3316;44.118;27.258;2022-12-15T06:54:45;100399.81;;;7.98;100.00
6565;BME280;3316;44.118;27.258;2022-12-15T06:57:10;100405.06;;;8.01;100.00
6565;BME280;3316;44.118;27.258;2022-12-15T06:59:36;100405.09;;;7.95;100.00
6565;BME280;3316;44.118;27.258;2022-12-15T07:02:02;100409.38;;;8.10;100.00
6565;BME280;3316;44.118;27.258;2022-12-15T07:04:27;100416.38;;;8.17;100.00
6565;BME280;3316;44.118;27.258;2022-12-15T07:06:52;100420.69;;;8.24;100.00
6565;BME280;3316;44.118;27.258;2022-12-15T07:09:18;100418.09;;;8.26;100.00
6565;BME280;3316;44.118;27.258;2022-12-15T07:11:44;100400.59;;;8.22;100.00
6565;BME280;3316;44.118;27.258;2022-12-15T07:14:10;100402.34;;;8.30;100.00
6565;BME280;3316;44.118;27.258;2022-12-15T07:16:36;100425.91;;;8.38;100.00
6565;BME280;3316;44.118;27.258;2022-12-15T07:19:02;100424.97;;;8.48;100.00
6565;BME280;3316;44.118;27.258;2022-12-15T07:21:27;100430.22;;;8.45;100.00
6565;BME280;3316;44.118;27.258;2022-12-15T07:23:52;100415.41;;;8.44;100.00
6565;BME280;3316;44.118;27.258;2022-12-15T07:26:18;100438.09;;;8.48;100.00
6565;BME280;3316;44.118;27.258;2022-12-15T07:28:43;100437.19;;;8.52;100.00
6565;BME280;3316;44.118;27.258;2022-12-15T07:31:09;100452.03;;;8.57;100.00
6565;BME280;3316;44.118;27.258;2022-12-15T07:33:38;100457.28;;;8.56;100.00
6565;BME280;3316;44.118;27.258;2022-12-15T07:36:04;100458.13;;;8.59;100.00
6565;BME280;3316;44.118;27.258;2022-12-15T07:38:30;100475.63;;;8.62;100.00
6565;BME280;3316;44.118;27.258;2022-12-15T07:41:00;100462.50;;;8.54;100.00
6565;BME280;3316;44.118;27.258;2022-12-15T07:43:27;100482.59;;;8.63;100.00
6565;BME280;3316;44.118;27.258;2022-12-15T07:45:53;100485.19;;;8.64;100.00
6565;BME280;3316;44.118;27.258;2022-12-15T07:48:19;100471.22;;;8.62;100.00
6565;BME280;3316;44.118;27.258;2022-12-15T07:50:44;100468.63;;;8.55;100.00
6565;BME280;3316;44.118;27.258;2022-12-15T07:53:10;100482.59;;;8.61;100.00
6565;BME280;3316;44.118;27.258;2022-12-15T07:55:35;100451.25;;;8.40;100.00
6565;BME280;3316;44.118;27.258;2022-12-15T07:58:01;100457.34;;;8.44;100.00
6565;BME280;3316;44.118;27.258;2022-12-15T08:00:26;100449.53;;;8.29;100.00
6565;BME280;3316;44.118;27.258;2022-12-15T08:02:52;100515.81;;;8.61;100.00
6565;BME280;3316;44.118;27.258;2022-12-15T08:05:18;100488.81;;;8.39;100.00
6565;BME280;3316;44.118;27.258;2022-12-15T08:07:43;100501.09;;;8.21;100.00
6565;BME280;3316;44.118;27.258;2022-12-15T08:10:08;100526.41;;;8.16;100.00
6565;BME280;3316;44.118;27.258;2022-12-15T08:12:34;100530.81;;;7.97;100.00
6565;BME280;3316;44.118;27.258;2022-12-15T08:15:00;100538.72;;;7.83;100.00
6565;BME280;3316;44.118;27.258;2022-12-15T08:17:25;100550.91;;;7.71;100.00
6565;BME280;3316;44.118;27.258;2022-12-15T08:19:50;100550.03;;;7.42;100.00
6565;BME280;3316;44.118;27.258;2022-12-15T08:22:16;100554.38;;;7.23;100.00
6565;BME280;3316;44.118;27.258;2022-12-15T08:24:41;100494.06;;;6.55;100.00
6565;BME280;3316;44.118;27.258;2022-12-15T08:27:07;100563.81;;;6.79;100.00
6565;BME280;3316;44.118;27.258;2022-12-15T08:29:33;100585.56;;;6.66;100.00
6565;BME280;3316;44.118;27.258;2022-12-15T08:31:59;100578.56;;;6.63;100.00
6565;BME280;3316;44.118;27.258;2022-12-15T08:34:24;100599.41;;;6.47;100.00
6565;BME280;3316;44.118;27.258;2022-12-15T08:36:50;100577.63;;;6.43;100.00
6565;BME280;3316;44.118;27.258;2022-12-15T08:39:15;100532.13;;;6.06;100.00
6565;BME280;3316;44.118;27.258;2022-12-15T08:41:41;100596.78;;;6.42;100.00
6565;BME280;3316;44.118;27.258;2022-12-15T08:44:06;100577.59;;;6.39;100.00
6565;BME280;3316;44.118;27.258;2022-12-15T08:46:33;100579.38;;;6.49;100.00
6565;BME280;3316;44.118;27.258;2022-12-15T08:49:00;100588.03;;;6.39;100.00
6565;BME280;3316;44.118;27.258;2022-12-15T08:51:27;100595.97;;;6.52;100.00
6565;BME280;3316;44.118;27.258;2022-12-15T08:53:54;100582.84;;;6.46;100.00
6565;BME280;3316;44.118;27.258;2022-12-15T08:56:21;100593.22;;;6.32;100.00
6565;BME280;3316;44.118;27.258;2022-12-15T08:58:48;100585.34;;;6.22;100.00
6565;BME280;3316;44.118;27.258;2022-12-15T09:01:19;100589.59;;;6.11;100.00
6565;BME280;3316;44.118;27.258;2022-12-15T09:03:46;100612.41;;;6.32;100.00
6565;BME280;3316;44.118;27.258;2022-12-15T09:06:17;100558.22;;;6.05;100.00
6565;BME280;3316;44.118;27.258;2022-12-15T09:08:43;100610.66;;;6.34;100.00
6565;BME280;3316;44.118;27.258;2022-12-15T09:11:11;100595.03;;;6.41;100.00
6565;BME280;3316;44.118;27.258;2022-12-15T09:13:37;100601.03;;;6.28;100.00
6565;BME280;3316;44.118;27.258;2022-12-15T09:16:06;100587.13;;;6.27;100.00
6565;BME280;3316;44.118;27.258;2022-12-15T09:18:33;100598.47;;;6.32;100.00
6565;BME280;3316;44.118;27.258;2022-12-15T09:21:06;100594.97;;;6.29;100.00
6565;BME280;3316;44.118;27.258;2022-12-15T09:23:33;100601.03;;;6.28;100.00
6565;BME280;3316;44.118;27.258;2022-12-15T09:26:00;100613.25;;;6.27;100.00
6565;BME280;3316;44.118;27.258;2022-12-15T09:28:27;100602.78;;;6.30;100.00
6565;BME280;3316;44.118;27.258;2022-12-15T09:30:53;100605.38;;;6.24;100.00
6565;BME280;3316;44.118;27.258;2022-12-15T09:33:18;100605.41;;;6.30;100.00
6565;BME280;3316;44.118;27.258;2022-12-15T09:35:50;100607.97;;;6.24;100.00
6565;BME280;3316;44.118;27.258;2022-12-15T09:38:16;100593.09;;;6.13;100.00
6565;BME280;3316;44.118;27.258;2022-12-15T09:40:41;100569.44;;;5.89;100.00
6565;BME280;3316;44.118;27.258;2022-12-15T09:43:13;100592.25;;;6.18;100.00
6565;BME280;3316;44.118;27.258;2022-12-15T09:45:44;100604.53;;;6.27;100.00
6565;BME280;3316;44.118;27.258;2022-12-15T09:48:16;100603.69;;;6.32;100.00
6565;BME280;3316;44.118;27.258;2022-12-15T09:50:45;100606.22;;;6.20;100.00
6565;BME280;3316;44.118;27.258;2022-12-15T09:53:14;100596.66;;;6.22;100.00
6565;BME280;3316;44.118;27.258;2022-12-15T09:55:45;100610.63;;;6.30;100.00
6565;BME280;3316;44.118;27.258;2022-12-15T10:01:28;100623.69;;;6.30;100.00
6565;BME280;3316;44.118;27.258;2022-12-15T10:09:30;100633.16;;;6.10;100.00
6565;BME280;3316;44.118;27.258;2022-12-15T10:12:02;100641.09;;;6.25;100.00
6565;BME280;3316;44.118;27.258;2022-12-15T10:14:40;100641.97;;;6.27;100.00
6565;BME280;3316;44.118;27.258;2022-12-15T10:19:44;100645.44;;;6.22;100.00
6565;BME280;3316;44.118;27.258;2022-12-15T10:22:24;100643.56;;;6.09;100.00
6565;BME280;3316;44.118;27.258;2022-12-15T10:24:52;100657.50;;;6.12;100.00
6565;BME280;3316;44.118;27.258;2022-12-15T10:30:03;100631.22;;;5.88;100.00
6565;BME280;3316;44.118;27.258;2022-12-15T10:35:06;100657.34;;;5.91;100.00
6565;BME280;3316;44.118;27.258;2022-12-15T10:37:33;100648.63;;;5.86;100.00
6565;BME280;3316;44.118;27.258;2022-12-15T10:39:59;100654.78;;;5.96;100.00
6565;BME280;3316;44.118;27.258;2022-12-15T10:42:25;100657.41;;;5.99;100.00
6565;BME280;3316;44.118;27.258;2022-12-15T10:44:56;100656.56;;;6.01;100.00
6565;BME280;3316;44.118;27.258;2022-12-15T10:47:26;100656.56;;;6.01;100.00
6565;BME280;3316;44.118;27.258;2022-12-15T10:49:53;100657.47;;;6.03;100.00
6565;BME280;3316;44.118;27.258;2022-12-15T10:52:26;100665.34;;;6.08;100.00
6565;BME280;3316;44.118;27.258;2022-12-15T10:54:55;100655.72;;;6.04;100.00
6565;BME280;3316;44.118;27.258;2022-12-15T10:57:24;100650.47;;;5.99;100.00
6565;BME280;3316;44.118;27.258;2022-12-15T10:59:55;100665.25;;;5.99;100.00
6565;BME280;3316;44.118;27.258;2022-12-15T11:04:59;100669.69;;;6.07;100.00
6565;BME280;3316;44.118;27.258;2022-12-15T11:08:11;100672.28;;;6.06;100.00
6565;BME280;3316;44.118;27.258;2022-12-15T11:12:43;100630.94;;;5.63;100.00
6565;BME280;3316;44.118;27.258;2022-12-15T11:17:56;100667.91;;;6.05;100.00
6565;BME280;3316;44.118;27.258;2022-12-15T11:20:29;100667.00;;;5.98;100.00
6565;BME280;3316;44.118;27.258;2022-12-15T11:23:39;100673.97;;;6.01;100.00
6565;BME280;3316;44.118;27.258;2022-12-15T11:26:21;100681.78;;;5.99;100.00
6565;BME280;3316;44.118;27.258;2022-12-15T11:28:53;100673.00;;;5.90;100.00
6565;BME280;3316;44.118;27.258;2022-12-15T11:31:40;100676.56;;;5.98;100.00
6565;BME280;3316;44.118;27.258;2022-12-15T11:34:50;100685.16;;;5.86;100.00
6565;BME280;3316;44.118;27.258;2022-12-15T11:45:18;100689.63;;;5.99;100.00
6565;BME280;3316;44.118;27.258;2022-12-15T11:47:52;100677.41;;;5.97;100.00
6565;BME280;3316;44.118;27.258;2022-12-15T11:52:58;100686.25;;;6.11;100.00
6565;BME280;3316;44.118;27.258;2022-12-15T12:00:45;100694.13;;;6.17;100.00
6565;BME280;3316;44.118;27.258;2022-12-15T12:11:14;100715.09;;;6.21;100.00
6565;BME280;3316;44.118;27.258;2022-12-15T12:16:29;100667.91;;;6.03;100.00
6565;BME280;3316;44.118;27.258;2022-12-15T12:19:04;100699.50;;;6.34;100.00
6565;BME280;3316;44.118;27.258;2022-12-15T12:21:41;100697.81;;;6.40;100.00
6565;BME280;3316;44.118;27.258;2022-12-15T12:24:38;100712.69;;;6.49;100.00
6565;BME280;3316;44.118;27.258;2022-12-15T12:27:13;100707.41;;;6.43;100.00
6565;BME280;3316;44.118;27.258;2022-12-15T12:29:46;100703.03;;;6.39;100.00
6565;BME280;3316;44.118;27.258;2022-12-15T12:32:27;100727.38;;;6.35;100.00
6565;BME280;3316;44.118;27.258;2022-12-15T12:37:51;100728.19;;;6.26;100.00
6565;BME280;3316;44.118;27.258;2022-12-15T12:43:01;100732.59;;;6.35;100.00
6565;BME280;3316;44.118;27.258;2022-12-15T12:46:30;100759.63;;;6.38;100.00
6565;BME280;3316;44.118;27.258;2022-12-15T12:51:35;100745.53;;;6.19;100.00
6565;BME280;3316;44.118;27.258;2022-12-15T12:57:02;100738.34;;;5.96;100.00
6565;BME280;3316;44.118;27.258;2022-12-15T12:59:55;100779.47;;;6.16;100.00
6565;BME280;3316;44.118;27.258;2022-12-15T13:05:00;100793.41;;;6.18;100.00
6565;BME280;3316;44.118;27.258;2022-12-15T13:07:36;100793.28;;;6.05;100.00
6565;BME280;3316;44.118;27.258;2022-12-15T13:12:44;100802.75;;;5.92;100.00
6565;BME280;3316;44.118;27.258;2022-12-15T13:15:38;100794.00;;;5.89;100.00
6565;BME280;3316;44.118;27.258;2022-12-15T13:20:39;100812.84;;;5.68;100.00
6565;BME280;3316;44.118;27.258;2022-12-15T13:33:56;100818.91;;;5.66;100.00
6565;BME280;3316;44.118;27.258;2022-12-15T13:46:50;100846.59;;;5.52;100.00
6565;BME280;3316;44.118;27.258;2022-12-15T13:52:04;100858.75;;;5.51;100.00
6565;BME280;3316;44.118;27.258;2022-12-15T13:54:38;100870.78;;;5.40;100.00
6565;BME280;3316;44.118;27.258;2022-12-15T13:57:10;100860.34;;;5.40;100.00
6565;BME280;3316;44.118;27.258;2022-12-15T13:59:41;100867.19;;;5.32;100.00
6565;BME280;3316;44.118;27.258;2022-12-15T14:02:34;100874.22;;;5.37;100.00
6565;BME280;3316;44.118;27.258;2022-12-15T14:07:28;100866.06;;;5.15;100.00
6565;BME280;3316;44.118;27.258;2022-12-15T14:09:53;100882.72;;;5.24;100.00
6565;BME280;3316;44.118;27.258;2022-12-15T14:12:19;100880.75;;;5.10;100.00
6565;BME280;3316;44.118;27.258;2022-12-15T14:14:46;100903.44;;;5.17;100.00
6565;BME280;3316;44.118;27.258;2022-12-15T14:17:15;100871.81;;;4.94;100.00
6565;BME280;3316;44.118;27.258;2022-12-15T14:19:45;100923.38;;;5.13;100.00
6565;BME280;3316;44.118;27.258;2022-12-15T14:22:40;100914.56;;;5.05;100.00
6565;BME280;3316;44.118;27.258;2022-12-15T14:25:29;100910.31;;;5.09;100.00
6565;BME280;3316;44.118;27.258;2022-12-15T14:27:55;100918.06;;;5.07;100.00
6565;BME280;3316;44.118;27.258;2022-12-15T14:30:29;100903.31;;;5.08;100.00
6565;BME280;3316;44.118;27.258;2022-12-15T14:37:56;100919.06;;;5.15;100.00
6565;BME280;3316;44.118;27.258;2022-12-15T14:40:23;100903.09;;;4.96;100.00
6565;BME280;3316;44.118;27.258;2022-12-15T14:42:51;100910.09;;;4.97;100.00
6565;BME280;3316;44.118;27.258;2022-12-15T14:45:19;100886.28;;;4.77;100.00
6565;BME280;3316;44.118;27.258;2022-12-15T14:47:54;100896.66;;;4.74;100.00
6565;BME280;3316;44.118;27.258;2022-12-15T14:50:22;100910.59;;;4.76;100.00
6565;BME280;3316;44.118;27.258;2022-12-15T14:52:56;100901.94;;;4.77;100.00
6565;BME280;3316;44.118;27.258;2022-12-15T14:57:50;100927.22;;;4.83;100.00
6565;BME280;3316;44.118;27.258;2022-12-15T15:00:23;100938.66;;;4.89;100.00
6565;BME280;3316;44.118;27.258;2022-12-15T15:05:58;100939.59;;;4.94;100.00
6565;BME280;3316;44.118;27.258;2022-12-15T15:08:34;100921.09;;;4.79;100.00
6565;BME280;3316;44.118;27.258;2022-12-15T15:11:03;100951.94;;;5.04;100.00
6565;BME280;3316;44.118;27.258;2022-12-15T15:13:42;100946.59;;;4.97;100.00
6565;BME280;3316;44.118;27.258;2022-12-15T15:16:15;100983.16;;;5.00;100.00
6565;BME280;3316;44.118;27.258;2022-12-15T15:18:42;100984.78;;;4.93;100.00
6565;BME280;3316;44.118;27.258;2022-12-15T15:21:15;100995.13;;;4.89;100.00
6565;BME280;3316;44.118;27.258;2022-12-15T15:23:41;100991.66;;;4.90;100.00
6565;BME280;3316;44.118;27.258;2022-12-15T15:26:08;101001.25;;;4.92;100.00
6565;BME280;3316;44.118;27.258;2022-12-15T15:28:39;100992.59;;;4.93;100.00
6565;BME280;3316;44.118;27.258;2022-12-15T15:33:48;101003.97;;;4.98;100.00
6565;BME280;3316;44.118;27.258;2022-12-15T15:36:14;100996.88;;;4.90;100.00
6565;BME280;3316;44.118;27.258;2022-12-15T15:38:41;100986.44;;;4.90;100.00